sensor_id;sensor_type;location;lat;lon;timestamp;pressure;altitude;pressure_sealevel;temperature;humidity
54978;BME280;40873;47.522;19.106;2023-02-12T00:01:17;101600.16;;;3.81;100.00
54978;BME280;40873;47.522;19.106;2023-02-12T00:03:45;101603.75;;;3.74;100.00
54978;BME280;40873;47.522;19.106;2023-02-12T00:06:12;101597.56;;;3.83;100.00
54978;BME280;40873;47.522;19.106;2023-02-12T00:08:42;101597.50;;;3.86;100.00
54978;BME280;40873;47.522;19.106;2023-02-12T00:11:12;101588.91;;;3.79;100.00
54978;BME280;40873;47.522;19.106;2023-02-12T00:13:39;101585.44;;;3.77;100.00
54978;BME280;40873;47.522;19.106;2023-02-12T00:16:09;101588.84;;;3.84;100.00
54978;BME280;40873;47.522;19.106;2023-02-12T00:18:37;101588.75;;;3.89;100.00
54978;BME280;40873;47.522;19.106;2023-02-12T00:21:04;101580.16;;;3.82;100.00
54978;BME280;40873;47.522;19.106;2023-02-12T00:23:35;101588.75;;;3.92;100.00
54978;BME280;40873;47.522;19.106;2023-02-12T00:26:07;101593.97;;;3.92;100.00
54978;BME280;40873;47.522;19.106;2023-02-12T00:28:35;101594.78;;;3.97;100.00
54978;BME280;40873;47.522;19.106;2023-02-12T00:31:07;101590.53;;;3.87;100.00
54978;BME280;40873;47.522;19.106;2023-02-12T00:33:35;101594.03;;;3.85;100.00
54978;BME280;40873;47.522;19.106;2023-02-12T00:36:03;101598.34;;;3.88;100.00
54978;BME280;40873;47.522;19.106;2023-02-12T00:38:30;101595.69;;;3.93;100.00
54978;BME280;40873;47.522;19.106;2023-02-12T00:40:57;101593.97;;;3.92;100.00
54978;BME280;40873;47.522;19.106;2023-02-12T00:43:24;101599.19;;;3.92;100.00
54978;BME280;40873;47.522;19.106;2023-02-12T00:45:51;101594.13;;;3.79;100.00
54978;BME280;40873;47.522;19.106;2023-02-12T00:48:19;101584.53;;;3.80;100.00
54978;BME280;40873;47.522;19.106;2023-02-12T00:50:47;101588.81;;;3.85;100.00
54978;BME280;40873;47.522;19.106;2023-02-12T00:53:14;101586.25;;;3.81;100.00
54978;BME280;40873;47.522;19.106;2023-02-12T00:55:41;101595.03;;;3.75;100.00
54978;BME280;40873;47.522;19.106;2023-02-12T00:58:08;101608.94;;;3.77;100.00
54978;BME280;40873;47.522;19.106;2023-02-12T01:00:36;101608.88;;;3.80;100.00
54978;BME280;40873;47.522;19.106;2023-02-12T01:03:03;101608.84;;;3.82;100.00
54978;BME280;40873;47.522;19.106;2023-02-12T01:05:31;101602.59;;;3.95;100.00
54978;BME280;40873;47.522;19.106;2023-02-12T01:07:58;101596.69;;;3.82;100.00
54978;BME280;40873;47.522;19.106;2023-02-12T01:10:26;101609.75;;;3.82;100.00
54978;BME280;40873;47.522;19.106;2023-02-12T01:12:53;101613.22;;;3.81;100.00
54978;BME280;40873;47.522;19.106;2023-02-12T01:15:20;101602.84;;;3.77;100.00
54978;BME280;40873;47.522;19.106;2023-02-12T01:17:47;101600.16;;;3.81;100.00
54978;BME280;40873;47.522;19.106;2023-02-12T01:20:16;101591.56;;;3.73;100.00
54978;BME280;40873;47.522;19.106;2023-02-12T01:22:43;101587.28;;;3.71;100.00
54978;BME280;40873;47.522;19.106;2023-02-12T01:25:11;101579.50;;;3.65;100.00
54978;BME280;40873;47.522;19.106;2023-02-12T01:27:38;101571.75;;;3.58;100.00
54978;BME280;40873;47.522;19.106;2023-02-12T01:30:08;101565.53;;;3.70;100.00
54978;BME280;40873;47.522;19.106;2023-02-12T01:32:35;101570.88;;;3.60;100.00
54978;BME280;40873;47.522;19.106;2023-02-12T01:35:03;101557.78;;;3.64;100.00
54978;BME280;40873;47.522;19.106;2023-02-12T01:37:30;101552.66;;;3.53;100.00
54978;BME280;40873;47.522;19.106;2023-02-12T01:40:00;101557.91;;;3.55;100.00
54978;BME280;40873;47.522;19.106;2023-02-12T01:42:28;101556.19;;;3.51;100.00
54978;BME280;40873;47.522;19.106;2023-02-12T01:47:43;101563.19;;;3.46;100.00
54978;BME280;40873;47.522;19.106;2023-02-12T01:50:13;101561.53;;;3.39;100.00
54978;BME280;40873;47.522;19.106;2023-02-12T01:52:44;101569.34;;;3.42;100.00
54978;BME280;40873;47.522;19.106;2023-02-12T01:55:12;101576.28;;;3.44;100.00
54978;BME280;40873;47.522;19.106;2023-02-12T01:57:44;101582.47;;;3.34;100.00
54978;BME280;40873;47.522;19.106;2023-02-12T02:00:15;101592.09;;;3.29;100.00
54978;BME280;40873;47.522;19.106;2023-02-12T02:02:45;101592.81;;;3.43;100.00
54978;BME280;40873;47.522;19.106;2023-02-12T02:08:06;101590.31;;;3.34;100.00
54978;BME280;40873;47.522;19.106;2023-02-12T02:10:33;101586.84;;;3.30;100.00
54978;BME280;40873;47.522;19.106;2023-02-12T02:13:01;101586.84;;;3.30;100.00
54978;BME280;40873;47.522;19.106;2023-02-12T02:15:48;101594.63;;;3.34;100.00
54978;BME280;40873;47.522;19.106;2023-02-12T02:18:26;101587.72;;;3.31;100.00
54978;BME280;40873;47.522;19.106;2023-02-12T02:23:41;101595.59;;;3.28;100.00
54978;BME280;40873;47.522;19.106;2023-02-12T02:32:07;101601.59;;;3.33;100.00
54978;BME280;40873;47.522;19.106;2023-02-12T02:40:12;101616.25;;;3.48;100.00
54978;BME280;40873;47.522;19.106;2023-02-12T02:45:29;101621.59;;;3.36;100.00
54978;BME280;40873;47.522;19.106;2023-02-12T02:48:04;101625.00;;;3.39;100.00
54978;BME280;40873;47.522;19.106;2023-02-12T02:50:36;101629.44;;;3.31;100.00
54978;BME280;40873;47.522;19.106;2023-02-12T02:53:13;101624.28;;;3.28;100.00
54978;BME280;40873;47.522;19.106;2023-02-12T02:55:47;101621.63;;;3.31;100.00
54978;BME280;40873;47.522;19.106;2023-02-12T02:58:25;101625.09;;;3.35;100.00
54978;BME280;40873;47.522;19.106;2023-02-12T03:00:59;101625.09;;;3.32;100.00
54978;BME280;40873;47.522;19.106;2023-02-12T03:03:34;101626.84;;;3.31;100.00
54978;BME280;40873;47.522;19.106;2023-02-12T03:06:14;101630.34;;;3.28;100.00
54978;BME280;40873;47.522;19.106;2023-02-12T03:08:51;101634.78;;;3.20;100.00
54978;BME280;40873;47.522;19.106;2023-02-12T03:11:24;101644.25;;;3.29;100.00
54978;BME280;40873;47.522;19.106;2023-02-12T03:16:33;101646.94;;;3.20;100.00
54978;BME280;40873;47.522;19.106;2023-02-12T03:19:02;101665.22;;;3.17;100.00
54978;BME280;40873;47.522;19.106;2023-02-12T03:21:42;101660.91;;;3.16;100.00
54978;BME280;40873;47.522;19.106;2023-02-12T03:24:30;101672.94;;;3.30;100.00
54978;BME280;40873;47.522;19.106;2023-02-12T03:29:39;101665.09;;;3.32;100.00
54978;BME280;40873;47.522;19.106;2023-02-12T03:32:57;101671.19;;;3.29;100.00
54978;BME280;40873;47.522;19.106;2023-02-12T03:35:53;101672.94;;;3.29;100.00
54978;BME280;40873;47.522;19.106;2023-02-12T03:38:42;101679.03;;;3.29;100.00
54978;BME280;40873;47.522;19.106;2023-02-12T03:41:49;101676.44;;;3.26;100.00
54978;BME280;40873;47.522;19.106;2023-02-12T03:52:44;101681.66;;;3.25;100.00
54978;BME280;40873;47.522;19.106;2023-02-12T03:55:12;101680.81;;;3.24;100.00
54978;BME280;40873;47.522;19.106;2023-02-12T03:57:42;101687.75;;;3.28;100.00
54978;BME280;40873;47.522;19.106;2023-02-12T04:00:16;101690.38;;;3.24;100.00
54978;BME280;40873;47.522;19.106;2023-02-12T04:02:44;101686.81;;;3.34;100.00
54978;BME280;40873;47.522;19.106;2023-02-12T04:05:22;101698.19;;;3.27;100.00
54978;BME280;40873;47.522;19.106;2023-02-12T04:07:51;101706.84;;;3.29;100.00
54978;BME280;40873;47.522;19.106;2023-02-12T04:10:26;101712.09;;;3.27;100.00
54978;BME280;40873;47.522;19.106;2023-02-12T04:13:20;101723.41;;;3.25;100.00
54978;BME280;40873;47.522;19.106;2023-02-12T04:16:04;101724.28;;;3.27;100.00
54978;BME280;40873;47.522;19.106;2023-02-12T04:18:41;101728.56;;;3.31;100.00
54978;BME280;40873;47.522;19.106;2023-02-12T04:21:13;101739.03;;;3.29;100.00
54978;BME280;40873;47.522;19.106;2023-02-12T04:26:35;101746.81;;;3.31;100.00
54978;BME280;40873;47.522;19.106;2023-02-12T04:29:32;101757.28;;;3.26;100.00
54978;BME280;40873;47.522;19.106;2023-02-12T04:34:53;101752.97;;;3.27;100.00
54978;BME280;40873;47.522;19.106;2023-02-12T04:37:27;101747.78;;;3.21;100.00
54978;BME280;40873;47.522;19.106;2023-02-12T04:39:57;101745.16;;;3.22;100.00
54978;BME280;40873;47.522;19.106;2023-02-12T04:42:25;101751.16;;;3.35;100.00
54978;BME280;40873;47.522;19.106;2023-02-12T04:44:52;101752.09;;;3.23;100.00
54978;BME280;40873;47.522;19.106;2023-02-12T04:47:19;101757.34;;;3.19;100.00
54978;BME280;40873;47.522;19.106;2023-02-12T04:49:46;101762.56;;;3.20;100.00
54978;BME280;40873;47.522;19.106;2023-02-12T04:52:13;101761.69;;;3.20;100.00
54978;BME280;40873;47.522;19.106;2023-02-12T04:54:40;101766.09;;;3.15;100.00
54978;BME280;40873;47.522;19.106;2023-02-12T04:57:08;101777.41;;;3.09;100.00
54978;BME280;40873;47.522;19.106;2023-02-12T04:59:35;101777.47;;;3.03;100.00
54978;BME280;40873;47.522;19.106;2023-02-12T05:02:02;101784.44;;;2.98;100.00
54978;BME280;40873;47.522;19.106;2023-02-12T05:04:29;101778.41;;;2.93;100.00
54978;BME280;40873;47.522;19.106;2023-02-12T05:06:56;101781.91;;;2.89;100.00
54978;BME280;40873;47.522;19.106;2023-02-12T05:09:23;101788.81;;;2.91;100.00
54978;BME280;40873;47.522;19.106;2023-02-12T05:11:50;101796.69;;;2.82;100.00
54978;BME280;40873;47.522;19.106;2023-02-12T05:14:17;101807.19;;;2.73;100.00
54978;BME280;40873;47.522;19.106;2023-02-12T05:16:43;101803.72;;;2.66;100.00
54978;BME280;40873;47.522;19.106;2023-02-12T05:19:10;101810.69;;;2.63;100.00
54978;BME280;40873;47.522;19.106;2023-02-12T05:21:37;101810.72;;;2.60;100.00
54978;BME280;40873;47.522;19.106;2023-02-12T05:24:05;101815.91;;;2.57;100.00
54978;BME280;40873;47.522;19.106;2023-02-12T05:26:32;101825.50;;;2.52;100.00
54978;BME280;40873;47.522;19.106;2023-02-12T05:28:59;101835.88;;;2.61;100.00
54978;BME280;40873;47.522;19.106;2023-02-12T05:31:26;101835.09;;;2.45;100.00
54978;BME280;40873;47.522;19.106;2023-02-12T05:33:53;101827.28;;;2.39;100.00
54978;BME280;40873;47.522;19.106;2023-02-12T05:36:22;101835.97;;;2.39;100.00
54978;BME280;40873;47.522;19.106;2023-02-12T05:38:50;101836.84;;;2.35;100.00
54978;BME280;40873;47.522;19.106;2023-02-12T05:41:21;101850.72;;;2.34;100.00
54978;BME280;40873;47.522;19.106;2023-02-12T05:43:49;101845.53;;;2.31;100.00
54978;BME280;40873;47.522;19.106;2023-02-12T05:46:20;101835.97;;;2.36;100.00
54978;BME280;40873;47.522;19.106;2023-02-12T05:48:47;101842.03;;;2.44;100.00
54978;BME280;40873;47.522;19.106;2023-02-12T05:51:17;101855.06;;;2.40;100.00
54978;BME280;40873;47.522;19.106;2023-02-12T05:53:46;101869.81;;;2.39;100.00
54978;BME280;40873;47.522;19.106;2023-02-12T05:56:24;101869.81;;;2.41;100.00
54978;BME280;40873;47.522;19.106;2023-02-12T05:58:57;101869.78;;;2.48;100.00
54978;BME280;40873;47.522;19.106;2023-02-12T06:01:33;101879.34;;;2.46;100.00
54978;BME280;40873;47.522;19.106;2023-02-12T06:04:03;101890.63;;;2.53;100.00
54978;BME280;40873;47.522;19.106;2023-02-12T06:06:31;101877.59;;;2.59;100.00
54978;BME280;40873;47.522;19.106;2023-02-12T06:08:58;101887.97;;;2.64;100.00
54978;BME280;40873;47.522;19.106;2023-02-12T06:11:26;101894.91;;;2.69;100.00
54978;BME280;40873;47.522;19.106;2023-02-12T06:13:54;101896.66;;;2.73;100.00
54978;BME280;40873;47.522;19.106;2023-02-12T06:16:23;101887.94;;;2.76;100.00
54978;BME280;40873;47.522;19.106;2023-02-12T06:18:51;101892.34;;;2.66;100.00
54978;BME280;40873;47.522;19.106;2023-02-12T06:21:20;101898.41;;;2.64;100.00
54978;BME280;40873;47.522;19.106;2023-02-12T06:23:48;101897.53;;;2.68;100.00
54978;BME280;40873;47.522;19.106;2023-02-12T06:26:15;101897.50;;;2.71;100.00
54978;BME280;40873;47.522;19.106;2023-02-12T06:28:43;101910.56;;;2.74;100.00
54978;BME280;40873;47.522;19.106;2023-02-12T06:31:23;101910.53;;;2.77;100.00
54978;BME280;40873;47.522;19.106;2023-02-12T06:33:52;101907.94;;;2.75;100.00
54978;BME280;40873;47.522;19.106;2023-02-12T06:36:19;101902.72;;;2.74;100.00
54978;BME280;40873;47.522;19.106;2023-02-12T06:38:47;101907.06;;;2.77;100.00
54978;BME280;40873;47.522;19.106;2023-02-12T06:41:14;101913.16;;;2.74;100.00
54978;BME280;40873;47.522;19.106;2023-02-12T06:43:41;101934.84;;;2.78;100.00
54978;BME280;40873;47.522;19.106;2023-02-12T06:46:08;101934.00;;;2.75;100.00
54978;BME280;40873;47.522;19.106;2023-02-12T06:48:36;101933.09;;;2.78;100.00
54978;BME280;40873;47.522;19.106;2023-02-12T06:51:11;101936.59;;;2.82;100.00
54978;BME280;40873;47.522;19.106;2023-02-12T06:53:39;101935.66;;;2.92;100.00
54978;BME280;40873;47.522;19.106;2023-02-12T06:56:08;101942.63;;;2.91;100.00
54978;BME280;40873;47.522;19.106;2023-02-12T06:58:40;101942.63;;;2.96;100.00
54978;BME280;40873;47.522;19.106;2023-02-12T07:01:27;101948.66;;;3.10;100.00
54978;BME280;40873;47.522;19.106;2023-02-12T07:03:57;101945.16;;;3.11;100.00
54978;BME280;40873;47.522;19.106;2023-02-12T07:06:26;101958.16;;;3.19;100.00
54978;BME280;40873;47.522;19.106;2023-02-12T07:08:55;101969.47;;;3.27;100.00
54978;BME280;40873;47.522;19.106;2023-02-12T07:11:24;101968.56;;;3.34;100.00
54978;BME280;40873;47.522;19.106;2023-02-12T07:13:52;101970.25;;;3.43;100.00
54978;BME280;40873;47.522;19.106;2023-02-12T07:16:19;101966.72;;;3.51;100.00
54978;BME280;40873;47.522;19.106;2023-02-12T07:18:46;101987.56;;;3.57;100.00
54978;BME280;40873;47.522;19.106;2023-02-12T07:21:15;101988.44;;;3.55;100.00
54978;BME280;40873;47.522;19.106;2023-02-12T07:23:51;101999.75;;;3.57;100.00
54978;BME280;40873;47.522;19.106;2023-02-12T07:26:19;101996.25;;;3.58;100.00
54978;BME280;40873;47.522;19.106;2023-02-12T07:28:49;101997.09;;;3.60;100.00
54978;BME280;40873;47.522;19.106;2023-02-12T07:31:21;101993.63;;;3.64;100.00
54978;BME280;40873;47.522;19.106;2023-02-12T07:33:58;102001.38;;;3.75;100.00
54978;BME280;40873;47.522;19.106;2023-02-12T07:36:28;101996.13;;;3.84;100.00
54978;BME280;40873;47.522;19.106;2023-02-12T07:38:56;101997.75;;;3.96;100.00
54978;BME280;40873;47.522;19.106;2023-02-12T07:41:25;102005.50;;;4.08;100.00
54978;BME280;40873;47.522;19.106;2023-02-12T07:43:55;102011.56;;;4.18;100.00
54978;BME280;40873;47.522;19.106;2023-02-12T07:46:28;102022.78;;;4.29;100.00
54978;BME280;40873;47.522;19.106;2023-02-12T07:49:01;102018.19;;;4.55;100.00
54978;BME280;40873;47.522;19.106;2023-02-12T07:51:30;102027.53;;;4.84;100.00
54978;BME280;40873;47.522;19.106;2023-02-12T07:54:02;102016.91;;;4.99;100.00
54978;BME280;40873;47.522;19.106;2023-02-12T07:56:32;102003.59;;;5.19;100.00
54978;BME280;40873;47.522;19.106;2023-02-12T07:59:03;102009.50;;;5.35;100.00
54978;BME280;40873;47.522;19.106;2023-02-12T08:01:36;102016.34;;;5.46;100.00
54978;BME280;40873;47.522;19.106;2023-02-12T08:04:05;102021.38;;;5.62;100.00
54978;BME280;40873;47.522;19.106;2023-02-12T08:06:36;102022.94;;;5.75;100.00
54978;BME280;40873;47.522;19.106;2023-02-12T08:09:05;102022.75;;;5.92;100.00
54978;BME280;40873;47.522;19.106;2023-02-12T08:11:35;102018.19;;;6.04;100.00
54978;BME280;40873;47.522;19.106;2023-02-12T08:14:03;102016.91;;;6.31;100.00
54978;BME280;40873;47.522;19.106;2023-02-12T08:16:35;102026.88;;;6.62;100.00
54978;BME280;40873;47.522;19.106;2023-02-12T08:19:05;102018.97;;;6.65;100.00
54978;BME280;40873;47.522;19.106;2023-02-12T08:21:44;102030.03;;;6.82;98.79
54978;BME280;40873;47.522;19.106;2023-02-12T08:24:13;102026.28;;;6.96;98.37
54978;BME280;40873;47.522;19.106;2023-02-12T08:26:40;102035.59;;;7.12;97.41
54978;BME280;40873;47.522;19.106;2023-02-12T08:29:10;102035.94;;;7.38;96.08
54978;BME280;40873;47.522;19.106;2023-02-12T08:31:40;102036.66;;;7.47;95.22
54978;BME280;40873;47.522;19.106;2023-02-12T08:34:25;102043.31;;;7.63;93.53
54978;BME280;40873;47.522;19.106;2023-02-12T08:36:53;102051.00;;;7.72;92.90
54978;BME280;40873;47.522;19.106;2023-02-12T08:39:21;102051.50;;;7.89;91.55
54978;BME280;40873;47.522;19.106;2023-02-12T08:41:48;102047.63;;;8.06;90.44
54978;BME280;40873;47.522;19.106;2023-02-12T08:44:17;102044.53;;;8.25;89.25
54978;BME280;40873;47.522;19.106;2023-02-12T08:46:46;102042.41;;;8.41;87.11
54978;BME280;40873;47.522;19.106;2023-02-12T08:49:16;102044.19;;;8.41;86.52
54978;BME280;40873;47.522;19.106;2023-02-12T08:51:46;102041.97;;;8.60;85.64
54978;BME280;40873;47.522;19.106;2023-02-12T08:54:20;102044.50;;;8.98;84.19
54978;BME280;40873;47.522;19.106;2023-02-12T08:56:48;102054.50;;;9.17;82.52
54978;BME280;40873;47.522;19.106;2023-02-12T08:59:16;102055.28;;;8.88;82.36
54978;BME280;40873;47.522;19.106;2023-02-12T09:01:43;102059.97;;;9.09;81.37
54978;BME280;40873;47.522;19.106;2023-02-12T09:04:16;102064.22;;;9.47;79.55
54978;BME280;40873;47.522;19.106;2023-02-12T09:06:44;102064.31;;;9.74;78.84
54978;BME280;40873;47.522;19.106;2023-02-12T09:09:12;102073.00;;;9.77;77.85
54978;BME280;40873;47.522;19.106;2023-02-12T09:11:40;102064.44;;;9.99;76.87
54978;BME280;40873;47.522;19.106;2023-02-12T09:14:11;102077.03;;;9.89;76.23
54978;BME280;40873;47.522;19.106;2023-02-12T09:16:39;102083.97;;;10.23;75.04
54978;BME280;40873;47.522;19.106;2023-02-12T09:19:07;102088.34;;;10.21;72.67
54978;BME280;40873;47.522;19.106;2023-02-12T09:21:34;102084.81;;;10.22;72.43
54978;BME280;40873;47.522;19.106;2023-02-12T09:24:01;102094.56;;;10.48;70.83
54978;BME280;40873;47.522;19.106;2023-02-12T09:26:29;102093.63;;;10.77;69.14
54978;BME280;40873;47.522;19.106;2023-02-12T09:28:57;102093.41;;;10.83;68.56
54978;BME280;40873;47.522;19.106;2023-02-12T09:31:26;102096.38;;;10.98;67.85
54978;BME280;40873;47.522;19.106;2023-02-12T09:33:58;102094.66;;;10.97;67.97
54978;BME280;40873;47.522;19.106;2023-02-12T09:36:25;102099.94;;;10.99;68.05
54978;BME280;40873;47.522;19.106;2023-02-12T09:38:53;102091.25;;;11.20;66.80
54978;BME280;40873;47.522;19.106;2023-02-12T09:41:45;102096.63;;;11.66;65.36
54978;BME280;40873;47.522;19.106;2023-02-12T09:44:19;102099.13;;;11.70;64.76
54978;BME280;40873;47.522;19.106;2023-02-12T09:47:00;102106.06;;;11.73;64.25
54978;BME280;40873;47.522;19.106;2023-02-12T09:52:17;102099.56;;;12.28;61.43
54978;BME280;40873;47.522;19.106;2023-02-12T09:54:47;102107.13;;;11.92;62.03
54978;BME280;40873;47.522;19.106;2023-02-12T09:57:24;102118.59;;;11.68;63.25
54978;BME280;40873;47.522;19.106;2023-02-12T09:59:57;102113.16;;;12.19;61.21
54978;BME280;40873;47.522;19.106;2023-02-12T10:02:25;102109.66;;;12.62;60.47
54978;BME280;40873;47.522;19.106;2023-02-12T10:04:53;102110.13;;;12.72;59.30
54978;BME280;40873;47.522;19.106;2023-02-12T10:12:54;102120.00;;;12.25;59.27
54978;BME280;40873;47.522;19.106;2023-02-12T10:15:48;102113.13;;;12.85;57.71
54978;BME280;40873;47.522;19.106;2023-02-12T10:21:36;102118.13;;;13.13;57.48
54978;BME280;40873;47.522;19.106;2023-02-12T10:24:22;102129.34;;;12.77;57.67
54978;BME280;40873;47.522;19.106;2023-02-12T10:27:02;102133.75;;;13.19;57.22
54978;BME280;40873;47.522;19.106;2023-02-12T10:29:37;102126.34;;;13.68;54.89
54978;BME280;40873;47.522;19.106;2023-02-12T10:32:27;102130.25;;;13.18;55.32
54978;BME280;40873;47.522;19.106;2023-02-12T10:34:56;102129.25;;;13.43;54.55
54978;BME280;40873;47.522;19.106;2023-02-12T10:37:41;102130.88;;;13.46;54.12
54978;BME280;40873;47.522;19.106;2023-02-12T10:42:49;102132.19;;;14.14;51.56
54978;BME280;40873;47.522;19.106;2023-02-12T10:45:24;102128.81;;;14.10;51.61
54978;BME280;40873;47.522;19.106;2023-02-12T10:48:00;102135.06;;;14.28;50.38
54978;BME280;40873;47.522;19.106;2023-02-12T10:53:37;102126.81;;;14.34;50.90
54978;BME280;40873;47.522;19.106;2023-02-12T10:56:22;102125.13;;;14.69;51.02
54978;BME280;40873;47.522;19.106;2023-02-12T11:01:34;102118.44;;;14.97;48.73
54978;BME280;40873;47.522;19.106;2023-02-12T11:04:22;102135.19;;;13.87;49.79
54978;BME280;40873;47.522;19.106;2023-02-12T11:07:00;102121.50;;;12.96;51.85
54978;BME280;40873;47.522;19.106;2023-02-12T11:09:34;102140.31;;;12.46;54.03
54978;BME280;40873;47.522;19.106;2023-02-12T11:12:02;102140.47;;;12.20;54.68
54978;BME280;40873;47.522;19.106;2023-02-12T11:14:29;102139.09;;;11.86;55.94
54978;BME280;40873;47.522;19.106;2023-02-12T11:16:58;102139.50;;;11.75;56.69
54978;BME280;40873;47.522;19.106;2023-02-12T11:19:28;102137.44;;;11.59;56.26
54978;BME280;40873;47.522;19.106;2023-02-12T11:22:12;102128.00;;;11.51;57.35
54978;BME280;40873;47.522;19.106;2023-02-12T11:24:45;102131.28;;;11.33;57.48
54978;BME280;40873;47.522;19.106;2023-02-12T11:29:43;102136.81;;;11.27;57.61
54978;BME280;40873;47.522;19.106;2023-02-12T11:32:17;102139.47;;;11.27;57.71
54978;BME280;40873;47.522;19.106;2023-02-12T11:37:45;102133.69;;;11.41;58.11
54978;BME280;40873;47.522;19.106;2023-02-12T11:40:19;102137.81;;;11.23;58.61
54978;BME280;40873;47.522;19.106;2023-02-12T11:42:50;102136.53;;;11.35;58.58
54978;BME280;40873;47.522;19.106;2023-02-12T11:45:20;102139.88;;;11.40;57.87
54978;BME280;40873;47.522;19.106;2023-02-12T11:47:49;102136.84;;;11.75;56.79
54978;BME280;40873;47.522;19.106;2023-02-12T11:50:29;102134.25;;;12.66;54.34
54978;BME280;40873;47.522;19.106;2023-02-12T11:53:03;102139.38;;;12.91;54.11
54978;BME280;40873;47.522;19.106;2023-02-12T11:55:36;102135.31;;;13.25;52.61
54978;BME280;40873;47.522;19.106;2023-02-12T11:58:16;102133.66;;;13.82;50.48
54978;BME280;40873;47.522;19.106;2023-02-12T12:06:45;102127.31;;;12.84;52.06
54978;BME280;40873;47.522;19.106;2023-02-12T12:12:32;102131.56;;;11.75;54.74
54978;BME280;40873;47.522;19.106;2023-02-12T12:15:35;102121.47;;;11.62;55.50
54978;BME280;40873;47.522;19.106;2023-02-12T12:18:30;102117.34;;;11.78;54.73
54978;BME280;40873;47.522;19.106;2023-02-12T12:21:28;102119.59;;;11.40;55.67
54978;BME280;40873;47.522;19.106;2023-02-12T12:26:57;102116.84;;;11.18;57.18
54978;BME280;40873;47.522;19.106;2023-02-12T12:32:04;102118.19;;;11.05;57.99
54978;BME280;40873;47.522;19.106;2023-02-12T12:34:32;102116.78;;;10.95;57.28
54978;BME280;40873;47.522;19.106;2023-02-12T12:40:28;102105.88;;;11.06;57.32
54978;BME280;40873;47.522;19.106;2023-02-12T12:43:11;102121.06;;;10.73;57.10
54978;BME280;40873;47.522;19.106;2023-02-12T12:54:27;102121.97;;;11.48;54.77
54978;BME280;40873;47.522;19.106;2023-02-12T13:03:48;102114.06;;;10.96;60.85
54978;BME280;40873;47.522;19.106;2023-02-12T13:06:31;102118.41;;;10.73;61.89
54978;BME280;40873;47.522;19.106;2023-02-12T13:09:25;102126.91;;;10.26;63.71
54978;BME280;40873;47.522;19.106;2023-02-12T13:29:17;102125.72;;;9.46;65.57
54978;BME280;40873;47.522;19.106;2023-02-12T13:31:53;102135.63;;;9.37;66.10
54978;BME280;40873;47.522;19.106;2023-02-12T13:34:23;102142.66;;;9.36;66.25
54978;BME280;40873;47.522;19.106;2023-02-12T13:36:54;102137.53;;;9.30;66.78
54978;BME280;40873;47.522;19.106;2023-02-12T13:39:24;102134.59;;;9.42;65.85
54978;BME280;40873;47.522;19.106;2023-02-12T13:42:15;102142.53;;;9.41;66.18
54978;BME280;40873;47.522;19.106;2023-02-12T13:58:47;102143.81;;;9.89;63.38
54978;BME280;40873;47.522;19.106;2023-02-12T14:01:34;102154.34;;;9.58;64.56
54978;BME280;40873;47.522;19.106;2023-02-12T14:04:28;102147.38;;;9.56;64.33
54978;BME280;40873;47.522;19.106;2023-02-12T14:07:05;102144.91;;;9.50;65.05
54978;BME280;40873;47.522;19.106;2023-02-12T14:12:15;102144.88;;;9.51;65.47
54978;BME280;40873;47.522;19.106;2023-02-12T14:14:47;102147.59;;;9.48;65.95
54978;BME280;40873;47.522;19.106;2023-02-12T14:38:00;102167.22;;;9.37;65.39
54978;BME280;40873;47.522;19.106;2023-02-12T14:43:38;102169.91;;;9.01;66.85
54978;BME280;40873;47.522;19.106;2023-02-12T14:49:02;102164.03;;;9.25;66.05
54978;BME280;40873;47.522;19.106;2023-02-12T14:51:50;102166.16;;;9.11;65.88
54978;BME280;40873;47.522;19.106;2023-02-12T14:56:50;102178.69;;;9.00;66.71
54978;BME280;40873;47.522;19.106;2023-02-12T14:59:21;102174.88;;;8.76;67.13
54978;BME280;40873;47.522;19.106;2023-02-12T15:01:49;102164.69;;;8.62;67.42
54978;BME280;40873;47.522;19.106;2023-02-12T15:04:30;102170.44;;;8.42;68.81
54978;BME280;40873;47.522;19.106;2023-02-12T15:07:13;102174.09;;;8.35;69.00
54978;BME280;40873;47.522;19.106;2023-02-12T15:09:50;102171.97;;;8.51;68.59
54978;BME280;40873;47.522;19.106;2023-02-12T15:12:34;102167.06;;;8.36;69.21
54978;BME280;40873;47.522;19.106;2023-02-12T15:15:12;102174.69;;;8.46;68.58
54978;BME280;40873;47.522;19.106;2023-02-12T15:17:51;102176.69;;;8.37;68.84
54978;BME280;40873;47.522;19.106;2023-02-12T15:20:49;102171.56;;;8.29;69.06
54978;BME280;40873;47.522;19.106;2023-02-12T15:25:57;102182.38;;;8.15;69.36
54978;BME280;40873;47.522;19.106;2023-02-12T15:28:29;102177.84;;;8.20;69.62
54978;BME280;40873;47.522;19.106;2023-02-12T15:31:00;102177.13;;;8.15;69.97
54978;BME280;40873;47.522;19.106;2023-02-12T15:33:32;102179.53;;;8.24;69.75
54978;BME280;40873;47.522;19.106;2023-02-12T15:36:01;102177.84;;;8.20;69.49
54978;BME280;40873;47.522;19.106;2023-02-12T15:38:39;102169.31;;;8.11;69.61
54978;BME280;40873;47.522;19.106;2023-02-12T15:41:08;102179.16;;;8.01;69.83
54978;BME280;40873;47.522;19.106;2023-02-12T15:43:39;102180.47;;;7.79;71.11
54978;BME280;40873;47.522;19.106;2023-02-12T15:46:15;102178.25;;;8.02;69.58
54978;BME280;40873;47.522;19.106;2023-02-12T15:48:43;102186.16;;;8.02;69.54
54978;BME280;40873;47.522;19.106;2023-02-12T15:51:47;102190.16;;;7.77;70.69
54978;BME280;40873;47.522;19.106;2023-02-12T15:54:14;102196.97;;;7.85;70.10
54978;BME280;40873;47.522;19.106;2023-02-12T15:56:44;102190.69;;;7.92;69.95